Latest Weather Observations for Yanakie

IDV60801

Issued at 1:32 pm EDT Thursday 23 February 2017 (issued every 30 minutes, with the page automatically refreshed every 10 minutes)

About weather observations | Map of weather stations | Latest weather observations for VIC | Other Formats
Station Details ID: 085301 Name: YANAKIE Lat: -38.81 Lon: 146.19 Height: 13.3 m
Data from the previous 72 hours. | See also: Recent months at Yanakie
Date/Time
EDT
Temp
°C
App
Temp
°C
Dew
Point
°C
Rel
Hum
%
Delta-T
°C
Wind Press
QNH
hPa
Press
MSL
hPa
Rain since
9am
mm
Dir  Spd
km/h
Gust
km/h
Spd
kts
Gust
kts
23/01:30pm 22.6 17.9 14.2 59 4.9 W 32 46 17 25 1017.4 1017.3 0.0
23/01:00pm 23.5 18.9 15.0 59 5.1 W 33 44 18 24 1017.4 1017.3 0.0
23/12:30pm 21.4 16.5 13.8 62 4.4 W 32 41 17 22 1017.4 1017.3 0.0
23/12:00pm 22.1 17.8 13.2 57 5.1 W 28 41 15 22 1017.1 1017.0 0.0
23/11:30am 22.1 17.4 13.2 57 5.1 W 30 41 16 22 1016.9 1016.8 0.0
23/11:00am 22.1 17.9 13.5 58 5.0 W 28 39 15 21 1016.7 1016.6 0.0
23/10:30am 21.8 19.2 13.9 61 4.6 WNW 20 28 11 15 1016.5 1016.4 0.0
23/10:00am 21.5 18.0 14.6 65 4.0 WNW 26 39 14 21 1016.4 1016.3 0.0
23/09:30am 20.0 16.7 13.9 68 3.5 WNW 24 32 13 17 1016.0 1015.9 0.0
23/09:00am 19.3 16.6 13.5 69 3.3 WNW 20 28 11 15 1015.7 1015.6 0.0
23/08:30am 18.0 15.0 12.7 71 3.0 WNW 20 28 11 15 1015.4 1015.3 0.0
23/08:00am 16.9 14.8 12.4 75 2.5 WNW 15 20 8 11 1014.9 1014.8 0.0
23/07:30am 14.7 13.7 11.1 79 1.9 NW 7 9 4 5 1014.4 1014.3 0.0
23/07:00am 13.9 12.9 10.9 82 1.6 NNW 7 9 4 5 1013.8 1013.7 0.0
23/06:30am 14.0 12.6 11.0 82 1.6 NW 9 11 5 6 1013.4 1013.3 0.0
23/06:00am 14.5 12.8 11.3 81 1.7 NNW 11 13 6 7 1013.0 1012.9 0.0
23/05:30am 14.0 12.3 11.3 84 1.4 NNW 11 13 6 7 1012.8 1012.7 0.0
23/05:00am 13.0 11.9 10.5 85 1.3 NW 7 11 4 6 1012.5 1012.4 0.0
23/04:30am 13.1 11.5 10.3 83 1.4 WNW 9 9 5 5 1012.3 1012.2 0.0
23/04:00am 14.3 13.6 11.3 82 1.6 WSW 6 7 3 4 1012.2 1012.1 0.0
23/03:30am 15.0 14.4 11.8 81 1.7 WSW 6 6 3 3 1012.1 1012.0 0.0
23/03:00am 16.0 15.2 11.8 76 2.3 WSW 7 9 4 5 1012.0 1011.9 0.0
23/02:30am 17.9 15.9 12.6 71 3.0 SW 15 20 8 11 1011.8 1011.7 0.0
23/02:00am 18.0 16.1 12.9 72 2.9 SW 15 20 8 11 1011.5 1011.4 0.0
23/01:30am 18.5 16.5 13.8 74 2.7 SW 17 22 9 12 1011.3 1011.2 0.0
23/01:00am 19.3 16.4 13.9 71 3.1 WSW 22 30 12 16 1010.7 1010.6 0.0
23/12:30am 18.6 16.8 10.7 60 4.3 W 11 24 6 13 1009.9 1009.8 0.0
23/12:00am 19.4 17.3 12.4 64 3.9 N 15 39 8 21 1009.5 1009.4 0.0
 
Date/Time
EDT
Temp
°C
App
Temp
°C
Dew
Point
°C
Rel
Hum
%
Delta-T
°C
Wind Press
QNH
hPa
Press
MSL
hPa
Rain since
9am
mm
Dir  Spd
km/h
Gust
km/h
Spd
kts
Gust
kts
22/11:30pm 19.7 17.0 12.9 65 3.8 ENE 19 26 10 14 1008.4 1008.3 0.0
22/11:00pm 19.3 17.6 13.5 69 3.3 E 15 22 8 12 1009.2 1009.1 0.0
22/10:30pm 19.5 17.8 13.7 69 3.3 E 15 24 8 13 1009.5 1009.4 0.0
22/10:00pm 20.1 16.9 13.1 64 4.0 ENE 22 32 12 17 1009.6 1009.5 0.0
22/09:30pm 20.1 18.2 13.1 64 4.0 E 15 24 8 13 1009.9 1009.8 0.0
22/09:00pm 20.5 18.2 13.0 62 4.3 E 17 28 9 15 1010.0 1009.9 0.0
22/08:30pm 19.3 18.1 13.9 71 3.1 ESE 13 20 7 11 1010.2 1010.1 0.0
22/08:00pm 20.3 18.2 13.5 65 3.9 E 17 24 9 13 1010.1 1010.0 0.0
22/07:30pm 21.0 18.9 13.7 63 4.2 E 17 30 9 16 1010.3 1010.2 0.0
22/07:00pm 22.0 19.6 12.5 54 5.4 E 17 22 9 12 1010.4 1010.3 0.0
22/06:30pm 22.6 19.7 12.3 52 5.8 E 19 28 10 15 1010.4 1010.3 0.0
22/06:00pm 22.5 20.1 12.7 54 5.6 ESE 17 24 9 13 1010.6 1010.5 0.0
22/05:30pm 24.1 22.0 13.6 52 6.1 E 17 28 9 15 1010.9 1010.8 0.0
22/05:00pm 24.4 21.9 13.6 51 6.3 E 19 30 10 16 1010.9 1010.8 0.0
22/04:30pm 24.6 22.4 15.0 55 5.7 E 20 32 11 17 1010.9 1010.8 0.0
22/04:00pm 24.7 22.6 14.8 54 5.9 E 19 28 10 15 1011.6 1011.5 0.0
22/03:30pm 24.6 23.4 17.1 63 4.6 ENE 19 26 10 14 1012.1 1012.0 0.0
22/03:00pm 24.3 22.7 16.0 60 5.0 ENE 19 26 10 14 1012.6 1012.5 0.0
22/02:30pm 25.1 23.8 15.7 56 5.7 E 17 24 9 13 1013.0 1012.9 0.0
22/02:00pm 24.4 22.8 15.1 56 5.6 ENE 17 22 9 12 1013.5 1013.4 0.0
22/01:30pm 24.2 22.7 14.3 54 5.9 ENE 15 20 8 11 1013.8 1013.7 0.0
22/01:00pm 23.7 22.5 14.1 55 5.6 E 13 19 7 10 1014.4 1014.3 0.0
22/12:30pm 23.2 22.0 15.0 60 4.9 E 15 19 8 10 1014.8 1014.7 0.0
22/12:00pm 22.4 21.1 14.8 62 4.5 E 15 19 8 10 1015.0 1014.9 0.0
22/11:30am 21.7 20.0 14.8 65 4.1 ENE 17 24 9 13 1015.4 1015.3 0.0
22/11:00am 20.8 19.1 14.7 68 3.6 ENE 17 26 9 14 1015.9 1015.8 0.0
22/10:30am 20.4 18.9 14.3 68 3.5 E 15 24 8 13 1016.0 1015.9 0.0
22/10:00am 19.7 17.8 14.1 70 3.2 ENE 17 24 9 13 1016.3 1016.2 0.0
22/09:30am 18.8 16.5 14.1 74 2.7 ENE 19 30 10 16 1016.6 1016.5 0.0
22/09:00am 17.9 15.5 13.8 77 2.3 ENE 19 30 10 16 1016.6 1016.5 0.6
22/08:30am 17.3 14.7 13.8 80 2.0 ENE 20 28 11 15 1016.5 1016.4 0.6
22/08:00am 16.6 13.9 12.9 79 2.1 ENE 19 28 10 15 1016.5 1016.4 0.6
22/07:30am 15.8 13.2 12.0 78 2.1 ENE 17 26 9 14 1016.3 1016.2 0.6
22/07:00am 14.7 12.8 11.8 83 1.6 ENE 13 19 7 10 1016.4 1016.3 0.6
22/06:30am 14.7 12.9 12.2 85 1.4 ENE 13 19 7 10 1016.3 1016.2 0.6
22/06:00am 14.7 12.5 12.0 84 1.5 ENE 15 20 8 11 1016.4 1016.3 0.6
22/05:30am 14.7 12.1 12.0 84 1.5 ENE 17 20 9 11 1016.5 1016.4 0.6
22/05:00am 15.0 12.4 12.0 82 1.6 ENE 17 24 9 13 1016.5 1016.4 0.6
22/04:30am 14.9 12.6 11.7 81 1.7 ENE 15 20 8 11 1016.7 1016.6 0.6
22/04:00am 14.6 13.1 11.9 84 1.5 ENE 11 17 6 9 1016.9 1016.8 0.6
22/03:30am 14.6 12.7 11.7 83 1.6 ENE 13 17 7 9 1017.2 1017.1 0.6
22/03:00am 14.9 12.7 12.0 83 1.6 ENE 15 22 8 12 1017.6 1017.5 0.6
22/02:30am 15.1 12.0 12.2 83 1.6 ENE 20 30 11 16 1017.8 1017.7 0.6
22/02:00am 15.1 12.1 12.4 84 1.5 ENE 20 26 11 14 1018.3 1018.2 0.6
22/01:30am 15.2 12.7 12.3 83 1.6 ENE 17 26 9 14 1018.7 1018.6 0.6
22/01:00am 15.1 12.6 12.2 83 1.6 ENE 17 26 9 14 1019.0 1018.9 0.6
22/12:30am 15.0 12.9 12.5 85 1.4 NE 15 24 8 13 1019.4 1019.3 0.6
22/12:00am 14.8 13.1 12.5 86 1.3 ENE 13 20 7 11 1019.7 1019.6 0.6
 
Date/Time
EDT
Temp
°C
App
Temp
°C
Dew
Point
°C
Rel
Hum
%
Delta-T
°C
Wind Press
QNH
hPa
Press
MSL
hPa
Rain since
9am
mm
Dir  Spd
km/h
Gust
km/h
Spd
kts
Gust
kts
21/11:30pm 15.2 13.9 12.5 84 1.5 ENE 11 17 6 9 1020.0 1019.9 0.6
21/11:00pm 15.1 13.4 12.4 84 1.5 ENE 13 20 7 11 1020.2 1020.1 0.6
21/10:30pm 14.6 13.3 12.6 88 1.1 NE 11 19 6 10 1020.4 1020.3 0.6
21/10:00pm 12.6 12.0 10.5 87 1.1 ENE 4 6 2 3 1020.4 1020.3 0.6
21/09:30pm 12.9 12.0 10.6 86 1.2 ENE 6 6 3 3 1020.3 1020.2 0.6
21/09:00pm 12.9 11.6 10.1 83 1.4 ENE 7 7 4 4 1020.1 1020.0 0.6
21/08:30pm 14.5 14.0 10.9 79 1.9 SE 4 4 2 2 1019.7 1019.6 0.6
21/08:00pm 15.4 14.9 10.8 74 2.4 S 4 6 2 3 1019.5 1019.4 0.6
21/07:30pm 16.6 14.9 11.3 71 2.9 SSW 11 15 6 8 1019.4 1019.3 0.4
21/07:00pm 17.2 15.3 11.7 70 3.0 SSW 13 19 7 10 1019.2 1019.1 0.4
21/06:30pm 17.5 14.7 11.3 67 3.4 SSW 17 22 9 12 1019.1 1019.0 0.4
21/06:00pm 17.9 15.1 11.5 66 3.5 SSW 17 22 9 12 1019.0 1018.9 0.4
21/05:30pm 18.3 14.9 11.4 64 3.8 SSW 20 28 11 15 1019.1 1019.0 0.4
21/05:00pm 18.9 15.6 11.5 62 4.0 SSW 20 28 11 15 1019.2 1019.1 0.4
21/04:30pm 19.2 15.7 11.0 59 4.5 SSW 20 28 11 15 1019.6 1019.5 0.4
21/04:00pm 19.3 15.6 10.3 56 4.8 SW 20 28 11 15 1019.7 1019.6 0.4
21/03:30pm 19.9 16.6 11.7 59 4.5 SSW 20 26 11 14 1019.8 1019.7 0.4
21/03:00pm 19.4 16.1 10.9 58 4.6 SSW 19 24 10 13 1019.9 1019.8 0.4
21/02:30pm 20.1 16.5 11.8 59 4.6 SW 22 32 12 17 1020.2 1020.1 0.4
21/02:00pm 19.9 17.4 12.4 62 4.2 SW 17 26 9 14 1020.4 1020.3 0.4
21/01:30pm 19.2 15.8 11.3 60 4.3 SW 20 30 11 16 1020.6 1020.5 0.2
21/01:00pm 18.4 15.6 11.2 63 3.9 SW 17 24 9 13 1020.8 1020.7 0.2
21/12:30pm 18.1 15.6 11.2 64 3.7 SW 15 20 8 11 1020.9 1020.8 0.2
21/12:00pm 17.9 15.9 11.5 66 3.5 WSW 13 19 7 10 1020.7 1020.6 0.2
21/11:30am 17.9 16.2 12.4 70 3.1 WNW 13 24 7 13 1020.9 1020.8 0.2
21/11:00am 16.7 14.7 12.8 78 2.2 WNW 15 19 8 10 1021.2 1021.1 0.0
21/10:30am 16.1 14.1 12.8 81 1.8 NW 15 20 8 11 1021.1 1021.0 0.0
21/10:00am 15.5 13.5 12.6 83 1.6 NW 15 19 8 10 1020.9 1020.8 0.0
21/09:30am 15.3 13.6 12.4 83 1.6 NW 13 20 7 11 1020.6 1020.5 0.0
21/09:00am 16.0 14.0 12.7 81 1.8 NW 15 19 8 10 1020.4 1020.3 4.4
21/08:30am 15.1 13.9 12.8 86 1.3 NW 11 15 6 8 1020.0 1019.9 4.4
21/08:00am 13.9 12.4 11.9 88 1.1 NW 11 15 6 8 1019.6 1019.5 4.2
21/07:30am 12.3 10.9 10.9 91 0.7 WNW 9 13 5 7 1019.3 1019.2 4.2
21/07:00am 11.6 9.6 10.2 91 0.7 NW 11 11 6 6 1018.6 1018.5 4.2
21/06:30am 10.7 8.9 9.3 91 0.7 NW 9 11 5 6 1018.3 1018.2 4.2
21/06:00am 10.7 8.8 9.1 90 0.8 NW 9 13 5 7 1017.9 1017.8 4.2
21/05:30am 10.8 8.6 9.2 90 0.8 WNW 11 13 6 7 1017.8 1017.7 4.0
21/05:00am 11.9 9.9 10.3 90 0.8 NW 11 15 6 8 1017.6 1017.5 4.0
21/04:30am 11.4 9.3 9.7 89 0.9 NW 11 13 6 7 1017.4 1017.3 4.0
21/04:00am 11.4 9.3 9.7 89 0.9 NW 11 15 6 8 1017.3 1017.2 4.0
21/03:30am 11.0 8.8 9.3 89 0.8 NW 11 13 6 7 1017.2 1017.1 4.0
21/03:00am 10.9 9.0 9.2 89 0.8 NW 9 11 5 6 1017.0 1016.9 4.0
21/02:30am 11.3 9.1 9.4 88 1.0 WNW 11 15 6 8 1016.8 1016.7 3.8
21/02:00am 11.7 9.2 9.6 87 1.1 WNW 13 15 7 8 1016.8 1016.7 3.8
21/01:30am 12.3 9.9 10.0 86 1.2 WNW 13 17 7 9 1017.0 1016.9 3.8
21/01:00am 12.6 10.3 10.3 86 1.2 W 13 17 7 9 1017.0 1016.9 3.8
21/12:30am 13.3 10.4 11.0 86 1.2 W 17 22 9 12 1016.8 1016.7 3.6
21/12:00am 14.0 10.9 11.5 85 1.3 W 19 30 10 16 1016.7 1016.6 3.6
 
Date/Time
EDT
Temp
°C
App
Temp
°C
Dew
Point
°C
Rel
Hum
%
Delta-T
°C
Wind Press
QNH
hPa
Press
MSL
hPa
Rain since
9am
mm
Dir  Spd
km/h
Gust
km/h
Spd
kts
Gust
kts
20/11:30pm 14.1 10.7 11.4 84 1.4 W 20 28 11 15 1016.5 1016.4 3.6
20/11:00pm 14.3 10.2 11.5 83 1.5 W 24 33 13 18 1016.2 1016.1 3.4
20/10:30pm 14.2 10.6 11.7 85 1.3 W 22 28 12 15 1016.1 1016.0 3.4
20/10:00pm 13.9 10.7 11.4 85 1.3 WNW 19 28 10 15 1015.9 1015.8 3.4
20/09:30pm 13.9 8.5 10.9 82 1.6 WSW 30 43 16 23 1015.8 1015.7 3.2
20/09:00pm 13.4 10.3 11.6 89 1.0 W 19 26 10 14 1015.4 1015.3 3.2
20/08:30pm 13.4 9.0 11.8 90 0.9 W 26 37 14 20 1014.8 1014.7 3.0
20/08:00pm 13.4 9.7 11.5 88 1.0 W 22 30 12 16 1014.4 1014.3 3.0
20/07:53pm 13.5 8.6 11.4 87 1.1 W 28 46 15 25 1014.4 1014.3 3.0
20/07:30pm 14.3 8.5 10.7 79 1.9 W 32 43 17 23 1014.0 1013.9 2.8
20/07:00pm 15.1 9.8 11.3 78 2.0 WSW 30 39 16 21 1013.5 1013.4 2.8
20/06:30pm 15.5 9.7 11.5 77 2.2 WSW 33 52 18 28 1013.0 1012.9 2.6
20/06:00pm 15.7 9.0 10.9 73 2.6 WSW 37 50 20 27 1012.7 1012.6 2.6
20/05:30pm 15.6 10.0 11.6 77 2.2 WSW 32 39 17 21 1012.3 1012.2 2.4
20/05:00pm 16.1 10.6 11.7 75 2.4 WSW 32 46 17 25 1012.1 1012.0 2.4
20/04:30pm 13.2 6.4 10.7 85 1.3 WSW 37 57 20 31 1012.2 1012.1 2.2
20/04:20pm 15.3 9.5 10.9 75 2.3 WSW 32 52 17 28 1012.1 1012.0 2.2
20/04:00pm 16.7 11.2 12.0 74 2.6 WSW 32 41 17 22 1011.6 1011.5 2.0
20/03:36pm 15.2 10.4 11.8 80 1.8 WSW 28 50 15 27 1011.7 1011.6 2.0
20/03:30pm 15.2 11.5 12.7 85 1.4 WSW 24 32 13 17 1011.7 1011.6 2.0
20/03:00pm 14.8 8.4 10.6 76 2.2 WSW 35 48 19 26 1011.6 1011.5 1.8
20/02:30pm 16.5 10.7 10.8 69 3.0 WSW 32 41 17 22 1011.3 1011.2 1.8
20/02:00pm 17.9 11.7 11.5 66 3.5 WSW 35 48 19 26 1011.1 1011.0 1.8

Other Formats:

Comma delimited format used in spreadsheet applications
http://www.bom.gov.au/fwo/IDV60801/IDV60801.94911.axf

JavaScript Object Notation format (JSON) in row-major order
http://www.bom.gov.au/fwo/IDV60801/IDV60801.94911.json